Terminal Aerodrome Forecast
Issued by NWS Sterling, VA

Current Version | Previous Version | Graphics & Text | Print | Product List | Glossary On
Versions: 1 2 3 4 5 6 7 8 9 10 11 12 13 14
000
FTUS41 KLWX 030534
TAFMRB
TAF
KMRB 030534Z 0306/0406 27004KT 3SM BR FEW090
     FM031200 VRB03KT 5SM BR SCT090
     FM031400 32004KT P6SM SCT090
     FM031600 32006KT P6SM BKN060=

USA.gov is the U.S. government's official web portal to all federal, state and local government web resources and services.